Tuesday, May 3, 2016, 12:53 AM EDT

KIPT, Williamsport-lycoming County

Location: Montoursville, PA, United States Lat: 41.25
Local Time: 12:53 AM EDT ( 4:53 GMT) Lon: -76.917
Time Zone: US/Eastern Elev: 528 ft

Show me the last for .
Show Decoded

2016-05-02 23:54 METAR KIPT 030354Z AUTO 01003KT 10SM -RA OVC021 12/08 A2992 RMK AO2 RAB11 SLP133
                 P0001 T01170083 =
2016-05-02 23:37 METAR KIPT 030337Z AUTO 09004KT 10SM -RA BKN023 OVC031 12/08 A2993 RMK AO2 RAB11
                 P0001 T01170083 =
2016-05-02 23:15 METAR KIPT 030315Z AUTO 34003KT 9SM RA SCT021 BKN032 OVC050 12/08 A2994 RMK AO2
                 RAB11 P0000 T01220083 =
2016-05-02 22:54 METAR KIPT 030254Z AUTO 13003KT 10SM BKN021 OVC033 13/09 A2994 RMK AO2 RAE24
                 SLP138 P0000 60000 T01280089 51013 =
2016-05-02 22:38 METAR KIPT 030238Z AUTO 00000KT 10SM SCT019 BKN024 OVC046 13/08 A2993 RMK AO2
                 RAE24 P0000 T01280083 =
2016-05-02 21:54 METAR KIPT 030154Z 03003KT 10SM -RA FEW039 OVC055 13/08 A2992 RMK AO2 RAB40
                 SLP133 P0000 T01330083 =
2016-05-02 20:54 METAR KIPT 030054Z 03005KT 10SM BKN060 14/08 A2992 RMK AO2 SLP132 T01390083 =
2016-05-02 19:54 METAR KIPT 022354Z VRB03KT 10SM OVC038 15/09 A2990 RMK AO2 SLP125 T01500089
                 10194 20139 50010 =
2016-05-02 18:54 METAR KIPT 022254Z 10006KT 10SM OVC038 17/11 A2990 RMK AO2 SLP125 T01720106 =
2016-05-02 17:54 METAR KIPT 022154Z 16003KT 10SM BKN047 18/12 A2987 RMK AO2 SLP115 T01830122 =
2016-05-02 16:54 METAR KIPT 022054Z 11005KT 10SM FEW049 BKN055 19/12 A2987 RMK AO2 SLP114
                 T01940122 55008 =
2016-05-02 15:54 METAR KIPT 021954Z 12004KT 10SM SCT014 BKN060 17/12 A2987 RMK AO2 SLP113
                 T01720122 =
2016-05-02 15:30 METAR KIPT 021930Z 11007KT 10SM SCT014 SCT060 17/12 A2986 RMK AO2 T01720122 =
2016-05-02 14:54 METAR KIPT 021854Z 12007KT 10SM BKN010 OVC014 16/12 A2988 RMK AO2 SLP118
                 T01560122 =
2016-05-02 14:25 METAR KIPT 021825Z 13007KT 10SM BKN009 16/12 A2988 RMK AO2 T01560117 =
2016-05-02 14:03 METAR KIPT 021803Z 10006KT 10SM OVC010 14/11 A2989 RMK AO2 T01390111 =
2016-05-02 13:54 METAR KIPT 021754Z 05006KT 10SM OVC009 14/11 A2989 RMK AO2 SLP123 60000
                 T01440111 10150 20100 53000 =
2016-05-02 13:41 METAR KIPT 021741Z 04005KT 10SM OVC009 15/11 A2988 RMK AO2 T01500111 =
2016-05-02 12:54 METAR KIPT 021654Z VRB04KT 10SM OVC010 14/11 A2989 RMK AO2 SLP121 T01390111 =
2016-05-02 12:41 METAR KIPT 021641Z 12004KT 10SM OVC005 13/11 A2989 RMK AO2 T01330106 =
2016-05-02 11:54 METAR KIPT 021554Z 07004KT 10SM OVC008 12/10 A2988 RMK AO2 SLP120 T01220100 =
2016-05-02 10:54 METAR KIPT 021454Z 15003KT 9SM OVC008 12/09 A2989 RMK AO2 SLP123 60000 T01170094
                 56011 =
2016-05-02 09:54 METAR KIPT 021354Z 15007G17KT 120V210 7SM OVC008 11/09 A2990 RMK AO2 SLP127
                 T01110089 =
2016-05-02 08:54 METAR KIPT 021254Z 06010G16KT 10SM OVC008 11/09 A2991 RMK AO2 RAE1159 SLP128
                 P0000 T01060089 =
2016-05-02 07:54 METAR KIPT 021154Z 10004KT 10SM -RA BKN009 OVC014 10/08 A2993 RMK AO2 TSB1056E15
                 CIG 006V011 SLP135 P0006 60026 70032 T01000083 10100 20094 53006 =
2016-05-02 07:39 METAR KIPT 021139Z 06006KT 4SM RA BR OVC010 10/09 A2993 RMK AO2 LTG DSNT NE AND
                 E TSB1056E15 CIG 008V013 P0005 T01000089 =
2016-05-02 07:21 METAR KIPT 021121Z 13005KT 10SM VCTS -RA OVC010 10/08 A2993 RMK AO2 LTG DSNT
                 NW-E TSB1056E15 CIG 005V014 P0002 T01000083 =
2016-05-02 07:02 METAR KIPT 021102Z VRB03KT 9SM -TSRA FEW007 OVC014 10/09 A2992 RMK AO2 LTG DSNT
                 NE AND E AND W TSB1056 P0001 T01000089 =
2016-05-02 06:54 METAR KIPT 021054Z 10004KT 8SM VCTS -RA SCT007 OVC012 10/08 A2992 RMK AO2 LTG
                 DSNT NE AND E AND W TSB13E53 SLP133 P0018 T01000083 =
2016-05-02 06:49 METAR KIPT 021049Z 12007KT 070V150 5SM TSRA BR BKN010 OVC014 10/08 A2991 RMK AO2
                 LTG DSNT ALQDS TSB13 P0018 =
2016-05-02 06:13 METAR KIPT 021013Z AUTO 05007KT 6SM -TSRA BR OVC006 10/08 A2991 RMK AO2 LTG DSNT
                 ALQDS TSB13 P0001 T01000083 =
2016-05-02 05:54 METAR KIPT 020954Z AUTO 09006KT 5SM -RA BR OVC006 10/08 A2991 RMK AO2 LTG DSNT
                 ALQDS RAB27 SLP129 P0002 T01000083 =
2016-05-02 04:54 METAR KIPT 020854Z AUTO 10006KT 6SM BR OVC006 10/09 A2994 RMK AO2 CIG 003V009
                 SLP139 T01000089 58008 =
2016-05-02 04:28 METAR KIPT 020828Z AUTO 08006KT 4SM BR OVC006 09/08 A2994 RMK AO2 CIG 003V010
                 T00940083 =
2016-05-02 04:14 METAR KIPT 020814Z AUTO 10006KT 3SM BR OVC004 10/08 A2995 RMK AO2 CIG 003V006
                 T01000083 =
2016-05-02 04:01 METAR KIPT 020801Z AUTO 08003KT 5SM BR OVC005 10/08 A2996 RMK AO2 CIG 003V007
                 T01000083 =
2016-05-02 03:54 METAR KIPT 020754Z AUTO 09006KT 7SM OVC004 10/08 A2996 RMK AO2 SLP147 T01000083
                 =
2016-05-02 03:50 METAR KIPT 020750Z AUTO 09005KT 6SM BR OVC004 10/08 A2996 RMK AO2 =
2016-05-02 02:54 METAR KIPT 020654Z AUTO 06007KT 6SM BR OVC006 10/08 A2996 RMK AO2 CIG 004V011
                 SLP147 T01000083 =
2016-05-02 01:54 METAR KIPT 020554Z AUTO 07008KT 5SM BR OVC006 10/08 A2999 RMK AO2 SLP156
                 T01000083 10100 20094 58011 =
2016-05-02 00:54 METAR KIPT 020454Z AUTO 07006KT 5SM BR OVC006 09/08 A3000 RMK AO2 SLP162
                 T00940083 401060072 =

Support USWX by starting your Amazon purchase here.